Time;durP1;ratioP1;P1;durP2;ratioP2;P2;SDS_P1;SDS_P2;PMS_P1;PMS_P2;Temp;Humidity;BMP_temperature;BMP_pressure;BME280_temperature;BME280_humidity;BME280_pressure;Samples;Min_cycle;Max_cycle;Signal;HPM_P1;HPM_P2
2023/04/05 00:02:20;;;;;;;7.80;2.65;;;;;;;2.34;72.51;101453.91;5045702;28;20041;-77
2023/04/05 00:04:56;;;;;;;6.55;2.05;;;;;;;2.41;73.02;101445.50;5049906;28;20079;-77
2023/04/05 00:07:21;;;;;;;5.93;2.35;;;;;;;2.39;73.90;101441.97;5046414;28;20053;-77
2023/04/05 00:09:47;;;;;;;7.50;2.30;;;;;;;2.40;74.01;101436.81;5047309;28;20051;-77
2023/04/05 00:12:13;;;;;;;6.13;2.90;;;;;;;2.45;74.08;101433.53;5050285;28;20069;-77
2023/04/05 00:14:38;;;;;;;5.68;2.65;;;;;;;2.50;72.39;101434.59;5047748;28;20037;-77
2023/04/05 00:17:03;;;;;;;8.27;2.80;;;;;;;2.52;72.50;101431.22;5046565;28;20065;-77
2023/04/05 00:19:32;;;;;;;5.65;2.22;;;;;;;2.55;72.62;101430.47;5046761;28;20039;-77
2023/04/05 00:21:58;;;;;;;5.15;2.33;;;;;;;2.54;74.92;101431.28;5057515;28;20021;-77
2023/04/05 00:24:24;;;;;;;6.03;2.28;;;;;;;2.40;78.14;101428.09;5050650;28;20044;-77
2023/04/05 00:26:49;;;;;;;4.53;1.90;;;;;;;2.39;77.77;101424.63;5030635;28;20041;-78
2023/04/05 00:29:15;;;;;;;4.95;1.90;;;;;;;2.32;77.87;101425.19;5048672;28;20061;-77
2023/04/05 00:31:40;;;;;;;6.50;2.22;;;;;;;2.15;79.06;101428.81;5052783;28;20137;-77
2023/04/05 00:34:07;;;;;;;5.68;2.05;;;;;;;2.17;80.63;101422.84;5049649;28;20041;-77
2023/04/05 00:36:33;;;;;;;5.75;2.20;;;;;;;2.31;78.36;101428.63;5045636;28;20045;-77
2023/04/05 00:38:59;;;;;;;4.88;2.10;;;;;;;2.41;76.60;101417.75;5048055;28;20060;-77
2023/04/05 00:41:24;;;;;;;6.72;2.55;;;;;;;2.43;76.81;101425.63;5028800;28;20563;-77
2023/04/05 00:43:49;;;;;;;6.57;2.30;;;;;;;2.42;74.49;101427.34;5030897;28;20127;-77
2023/04/05 00:46:15;;;;;;;5.90;2.35;;;;;;;2.49;73.66;101438.00;5044256;28;20344;-77
2023/04/05 00:48:41;;;;;;;5.22;2.35;;;;;;;2.45;72.83;101423.97;5046997;28;20076;-77
2023/04/05 00:51:10;;;;;;;6.18;2.13;;;;;;;2.46;71.75;101417.94;5047060;28;20033;-77
2023/04/05 00:53:36;;;;;;;5.65;2.60;;;;;;;2.53;71.55;101419.09;5046116;28;20025;-77
2023/04/05 00:56:02;;;;;;;8.80;2.78;;;;;;;2.57;71.20;101426.22;5034694;28;20091;-77
2023/04/05 00:58:28;;;;;;;4.93;2.20;;;;;;;2.60;70.58;101422.00;5046499;28;20552;-77
2023/04/05 01:00:58;;;;;;;6.05;2.33;;;;;;;2.62;70.28;101417.75;5044004;28;20112;-77
2023/04/05 01:03:26;;;;;;;4.57;1.88;;;;;;;2.61;70.17;101417.66;5031071;28;20123;-77
2023/04/05 01:06:11;;;;;;;13.07;3.47;;;;;;;2.55;69.56;101415.72;5044959;28;20033;-77
2023/04/05 01:09:05;;;;;;;5.00;2.38;;;;;;;2.55;70.41;101413.09;5042526;28;20036;-77
2023/04/05 01:11:32;;;;;;;;;;;;;;;2.49;70.47;101407.66;5034195;28;20127;-77
2023/04/05 01:13:58;;;;;;;4.95;2.28;;;;;;;2.45;70.00;101410.06;5047599;28;19966;-77
2023/04/05 01:16:24;;;;;;;5.55;2.33;;;;;;;2.45;69.87;101403.13;5044074;28;20507;-77
2023/04/05 01:18:55;;;;;;;7.20;2.50;;;;;;;2.42;70.01;101403.91;5026784;28;20072;-77
2023/04/05 01:21:33;;;;;;;4.95;2.10;;;;;;;2.38;70.40;101401.09;5026876;28;20120;-77
2023/04/05 01:24:34;;;;;;;5.53;2.38;;;;;;;2.31;70.11;101397.38;5042054;28;20041;-77
2023/04/05 01:27:44;;;;;;;5.80;2.50;;;;;;;2.17;70.64;101399.41;5043078;28;20638;-77
2023/04/05 01:30:16;;;;;;;5.10;2.05;;;;;;;2.02;70.80;101392.63;5049283;28;20496;-77
2023/04/05 01:33:20;;;;;;;10.07;2.50;;;;;;;1.80;72.77;101393.44;5041531;28;20033;-77
2023/04/05 01:35:58;;;;;;;5.35;2.08;;;;;;;1.66;72.75;101393.75;5049341;28;20037;-77
2023/04/05 01:38:25;;;;;;;4.35;1.88;;;;;;;1.55;72.21;101395.00;5049316;28;20041;-77
2023/04/05 01:40:51;;;;;;;4.18;2.00;;;;;;;1.37;73.31;101397.66;5045440;28;20110;-77
2023/04/05 01:43:17;;;;;;;7.35;2.83;;;;;;;1.16;74.27;101396.69;5023769;28;20045;-77
2023/04/05 01:45:44;;;;;;;5.60;2.55;;;;;;;1.03;74.93;101385.72;5047764;28;20028;-77
2023/04/05 01:48:09;;;;;;;6.78;2.20;;;;;;;0.96;75.81;101390.56;5048211;28;20040;-77
2023/04/05 01:50:35;;;;;;;5.00;2.22;;;;;;;0.89;75.99;101394.56;5051229;28;20446;-77
2023/04/05 01:53:00;;;;;;;5.35;2.13;;;;;;;0.80;75.93;101392.44;5046254;28;20091;-77
2023/04/05 01:55:26;;;;;;;5.32;2.45;;;;;;;0.75;75.90;101385.25;5042016;28;20036;-77
2023/04/05 01:57:54;;;;;;;5.78;2.08;;;;;;;0.71;76.52;101388.50;5046032;28;20029;-77
2023/04/05 02:00:20;;;;;;;5.68;2.00;;;;;;;0.63;76.81;101386.47;5033805;28;20036;-77
2023/04/05 02:02:46;;;;;;;5.20;2.58;;;;;;;0.55;76.45;101392.09;5049004;28;20032;-77
2023/04/05 02:05:11;;;;;;;5.82;2.58;;;;;;;0.48;76.01;101390.91;5025296;28;20139;-77
2023/04/05 02:07:36;;;;;;;6.47;2.42;;;;;;;0.41;76.53;101383.63;5044818;28;20057;-77
2023/04/05 02:10:02;;;;;;;7.07;2.55;;;;;;;0.29;77.46;101389.16;5041722;28;20380;-77
2023/04/05 02:12:28;;;;;;;7.38;2.53;;;;;;;0.24;78.32;101390.63;5035354;28;20033;-77
2023/04/05 02:14:53;;;;;;;6.68;2.85;;;;;;;0.09;81.02;101392.44;5042537;28;20486;-77
2023/04/05 02:17:18;;;;;;;5.07;2.25;;;;;;;0.00;80.91;101387.69;5043447;28;20438;-77
2023/04/05 02:19:45;;;;;;;6.22;2.40;;;;;;;-0.10;80.09;101393.25;5034904;28;20507;-77
2023/04/05 02:22:11;;;;;;;6.20;2.47;;;;;;;-0.21;80.35;101395.25;5042910;28;20033;-77
2023/04/05 02:24:36;;;;;;;7.00;2.42;;;;;;;-0.33;80.43;101402.44;5042731;28;20068;-77
2023/04/05 02:27:03;;;;;;;4.72;2.40;;;;;;;-0.45;82.38;101395.81;5033341;28;20187;-77
2023/04/05 02:29:28;;;;;;;5.00;3.00;;;;;;;-0.48;83.22;101390.44;5032218;28;20567;-77
2023/04/05 02:31:54;;;;;;;5.70;2.40;;;;;;;-0.55;84.00;101395.22;5039416;28;20064;-77
2023/04/05 02:34:21;;;;;;;6.83;2.50;;;;;;;-0.57;84.42;101395.16;5043969;28;20124;-77
2023/04/05 02:36:48;;;;;;;4.87;2.20;;;;;;;-0.62;84.98;101396.63;5025372;28;20514;-77
2023/04/05 02:39:13;;;;;;;8.00;2.20;;;;;;;-0.63;85.14;101389.63;5039700;28;20038;-77
2023/04/05 02:41:38;;;;;;;5.90;1.87;;;;;;;-0.63;85.84;101384.44;5043760;28;20395;-77
2023/04/05 02:44:04;;;;;;;4.87;2.73;;;;;;;-0.64;85.22;101382.66;5022067;28;20396;-77
2023/04/05 02:46:29;;;;;;;6.83;2.53;;;;;;;-0.63;85.12;101378.38;5025271;28;20578;-77
2023/04/05 02:48:55;;;;;;;6.60;3.03;;;;;;;-0.63;85.98;101386.16;5021256;28;20034;-77
2023/04/05 02:51:23;;;;;;;6.10;2.83;;;;;;;-0.63;85.83;101381.84;5034579;28;20033;-77
2023/04/05 02:53:48;;;;;;;7.30;2.63;;;;;;;-0.61;86.43;101379.34;5028279;28;20036;-77
2023/04/05 02:56:14;;;;;;;7.07;2.50;;;;;;;-0.63;85.72;101379.25;5022026;28;20071;-77
2023/04/05 02:58:43;;;;;;;6.00;2.13;;;;;;;-0.68;85.41;101376.44;5025167;28;20402;-77
2023/04/05 03:01:09;;;;;;;6.63;3.03;;;;;;;-0.71;85.74;101375.38;5023401;28;20508;-77
2023/04/05 03:03:34;;;;;;;7.40;3.03;;;;;;;-0.74;87.76;101380.41;5024673;28;20096;-77
2023/04/05 03:06:09;;;;;;;4.83;2.33;;;;;;;-0.77;88.37;101385.44;5030719;28;20048;-77
2023/04/05 03:08:47;;;;;;;7.03;2.80;;;;;;;-0.74;88.96;101380.41;5024631;28;20044;-77
2023/04/05 03:11:15;;;;;;;7.00;3.17;;;;;;;-0.74;89.37;101373.50;5036709;28;20026;-77
2023/04/05 03:13:45;;;;;;;5.90;2.87;;;;;;;-0.73;89.64;101379.63;5042103;28;20032;-77
2023/04/05 03:16:19;;;;;;;14.27;4.90;;;;;;;-0.71;89.41;101384.06;5032491;28;20032;-77
2023/04/05 03:18:44;;;;;;;10.13;3.03;;;;;;;-0.68;90.23;101375.56;5022947;28;20033;-77
2023/04/05 03:21:10;;;;;;;6.77;3.20;;;;;;;-0.72;92.59;101368.41;5025428;28;20256;-77
2023/04/05 03:23:37;;;;;;;6.57;2.83;;;;;;;-0.74;93.36;101375.22;5029543;28;20029;-77
2023/04/05 03:26:03;;;;;;;6.67;3.00;;;;;;;-0.69;92.73;101369.47;5026001;28;20040;-77
2023/04/05 03:28:33;;;;;;;6.60;2.70;;;;;;;-0.68;92.49;101367.78;5031218;28;20499;-77
2023/04/05 03:31:02;;;;;;;9.03;3.30;;;;;;;-0.73;92.20;101364.06;5026172;28;20037;-76
2023/04/05 03:33:28;;;;;;;5.03;2.30;;;;;;;-0.74;91.69;101359.66;5028690;28;20033;-77
2023/04/05 03:35:53;;;;;;;5.90;2.70;;;;;;;-0.76;91.79;101367.38;5035995;28;20153;-77
2023/04/05 03:38:20;;;;;;;6.53;3.27;;;;;;;-0.81;91.78;101360.16;5034834;28;20116;-77
2023/04/05 03:40:55;;;;;;;9.90;3.67;;;;;;;-0.86;91.77;101361.59;5031505;28;20038;-77
2023/04/05 03:43:20;;;;;;;9.50;3.80;;;;;;;-0.89;91.90;101365.84;5045439;28;20043;-77
2023/04/05 03:45:46;;;;;;;6.53;2.80;;;;;;;-0.89;91.64;101371.03;5028753;28;20033;-77
2023/04/05 03:48:11;;;;;;;8.30;3.20;;;;;;;-0.91;91.52;101372.63;5026625;28;20499;-77
2023/04/05 03:50:36;;;;;;;8.10;3.10;;;;;;;-0.91;91.85;101375.22;5040399;28;20036;-77
2023/04/05 03:53:02;;;;;;;8.33;3.37;;;;;;;-0.92;92.95;101376.03;5047514;28;20049;-77
2023/04/05 03:55:28;;;;;;;6.00;3.10;;;;;;;-0.94;93.62;101366.41;5037335;28;20056;-77
2023/04/05 03:57:54;;;;;;;6.90;3.10;;;;;;;-0.95;92.67;101368.06;5026204;28;20056;-77
2023/04/05 04:00:25;;;;;;;11.23;3.23;;;;;;;-0.97;92.47;101371.41;5026287;28;20408;-77
2023/04/05 04:03:12;;;;;;;7.63;2.63;;;;;;;-1.01;92.72;101369.47;5033949;28;20093;-77
2023/04/05 04:05:41;;;;;;;8.37;3.10;;;;;;;-1.04;93.31;101374.50;5023567;28;20031;-77
2023/04/05 04:08:08;;;;;;;6.10;2.90;;;;;;;-1.03;93.81;101377.13;5029712;28;20410;-77
2023/04/05 04:10:35;;;;;;;8.73;3.40;;;;;;;-1.04;93.32;101372.78;5032782;28;20431;-77
2023/04/05 04:13:05;;;;;;;6.43;3.23;;;;;;;-1.08;94.85;101367.34;5031612;28;20120;-77
2023/04/05 04:15:32;;;;;;;8.70;3.00;;;;;;;-1.07;95.57;101374.28;5046153;22;20136;-71
2023/04/05 04:18:30;;;;;;;6.20;3.03;;;;;;;-1.06;95.60;101382.16;5042459;28;20547;-71
2023/04/05 04:21:15;;;;;;;9.23;3.13;;;;;;;-1.06;95.92;101386.47;5053829;28;20530;-74
2023/04/05 04:24:04;;;;;;;9.40;3.83;;;;;;;-1.16;97.00;101382.47;5039634;28;20090;-74
2023/04/05 04:26:53;;;;;;;12.70;4.67;;;;;;;-1.20;99.08;101378.84;5054055;28;20423;-74
2023/04/05 04:29:37;;;;;;;11.43;5.40;;;;;;;-1.17;98.58;101379.00;5051861;28;20066;-73
2023/04/05 04:32:51;;;;;;;8.50;3.93;;;;;;;-1.15;97.95;101392.03;5029519;28;20048;-74
2023/04/05 04:35:37;;;;;;;9.13;3.43;;;;;;;-1.32;99.25;101391.09;5035025;28;20329;-73
2023/04/05 04:38:20;;;;;;;8.80;3.53;;;;;;;-1.36;98.27;101395.22;5050227;28;20111;-74
2023/04/05 04:41:07;;;;;;;7.87;3.70;;;;;;;-1.36;98.28;101387.44;5051470;28;20025;-74
2023/04/05 04:43:44;;;;;;;4.97;2.30;;;;;;;-1.37;97.54;101389.94;5018345;28;20067;-74
2023/04/05 04:46:17;;;;;;;7.50;3.73;;;;;;;-1.35;96.85;101389.22;5026987;28;20033;-73
2023/04/05 04:49:04;;;;;;;6.30;3.27;;;;;;;-1.31;95.68;101379.94;5052828;28;20722;-73
2023/04/05 04:51:37;;;;;;;8.23;3.13;;;;;;;-1.29;95.51;101388.66;5052950;28;20037;-73
2023/04/05 04:54:02;;;;;;;7.72;3.70;;;;;;;-1.32;95.07;101389.38;5045815;28;20029;-73
2023/04/05 04:56:27;;;;;;;10.00;4.40;;;;;;;-1.35;95.32;101384.03;5052140;28;20491;-74
2023/04/05 04:58:55;;;;;;;13.43;6.87;;;;;;;-1.34;95.19;101391.03;5035759;28;20037;-74
2023/04/05 05:01:21;;;;;;;13.53;6.03;;;;;;;-1.34;96.33;101392.69;5058451;28;20035;-71
2023/04/05 05:03:47;;;;;;;9.73;4.00;;;;;;;-1.32;96.36;101388.50;5053567;28;20418;-71
2023/04/05 05:06:20;;;;;;;12.13;5.97;;;;;;;-1.29;95.86;101387.78;5051438;28;20025;-71
2023/04/05 05:08:47;;;;;;;9.10;4.63;;;;;;;-1.25;95.75;101389.75;5051342;28;20043;-70
2023/04/05 05:11:12;;;;;;;7.23;3.47;;;;;;;-1.23;95.26;101395.88;5051762;28;20480;-71
2023/04/05 05:13:37;;;;;;;6.53;3.40;;;;;;;-1.20;95.05;101388.31;5051743;28;20047;-71
2023/04/05 05:16:04;;;;;;;6.20;3.13;;;;;;;-1.15;95.82;101386.88;5051093;28;20032;-71
2023/04/05 05:18:29;;;;;;;9.40;3.23;;;;;;;-1.06;95.25;101382.16;5051239;28;20045;-71
2023/04/05 05:20:55;;;;;;;7.70;3.10;;;;;;;-0.97;95.36;101382.69;5051336;28;20052;-71
2023/04/05 05:23:20;;;;;;;6.83;2.97;;;;;;;-0.88;94.58;101384.88;5052049;28;20123;-71
2023/04/05 05:25:46;;;;;;;7.20;2.87;;;;;;;-0.77;93.91;101390.63;5052633;28;20099;-71
2023/04/05 05:28:13;;;;;;;9.53;3.37;;;;;;;-0.70;93.45;101387.53;5034556;28;20053;-71
2023/04/05 05:30:38;;;;;;;7.80;3.30;;;;;;;-0.61;93.39;101387.13;5052390;28;20080;-70
2023/04/05 05:33:03;;;;;;;8.80;3.37;;;;;;;-0.53;92.56;101384.13;5051771;28;20056;-71
2023/04/05 05:35:29;;;;;;;6.33;3.30;;;;;;;-0.45;91.99;101381.94;5051975;28;20045;-71
2023/04/05 05:37:54;;;;;;;6.70;2.90;;;;;;;-0.36;92.13;101390.19;5052236;28;20063;-71
2023/04/05 05:40:19;;;;;;;6.30;2.60;;;;;;;-0.28;91.43;101380.22;5048015;28;20041;-70
2023/04/05 05:42:45;;;;;;;6.13;2.97;;;;;;;-0.20;90.64;101380.63;5052266;28;20127;-70
2023/04/05 05:45:10;;;;;;;6.40;3.10;;;;;;;-0.14;90.34;101381.78;5051011;28;20090;-71
2023/04/05 05:47:35;;;;;;;6.87;3.60;;;;;;;-0.11;89.23;101381.06;5052278;28;20063;-71
2023/04/05 05:50:01;;;;;;;8.53;3.70;;;;;;;-0.12;89.24;101385.38;5051084;28;20036;-70
2023/04/05 05:52:26;;;;;;;10.67;3.90;;;;;;;-0.09;88.65;101382.91;5051556;28;20063;-71
2023/04/05 05:54:51;;;;;;;11.40;4.70;;;;;;;-0.03;88.99;101380.66;5050931;28;20648;-71
2023/04/05 05:57:17;;;;;;;8.93;4.30;;;;;;;0.02;88.69;101377.38;5051949;28;20498;-71
2023/04/05 05:59:42;;;;;;;7.93;4.30;;;;;;;0.07;88.14;101376.78;5034602;28;20040;-71
2023/04/05 06:02:08;;;;;;;10.77;4.33;;;;;;;0.07;89.34;101370.72;5057897;28;20475;-71
2023/04/05 06:04:33;;;;;;;7.77;3.40;;;;;;;0.14;89.51;101372.81;5045780;28;20044;-71
2023/04/05 06:07:00;;;;;;;10.57;3.85;;;;;;;0.25;89.22;101382.00;5036839;28;20040;-70
2023/04/05 06:09:26;;;;;;;8.32;4.47;;;;;;;0.32;88.74;101378.91;5051236;28;20032;-71
2023/04/05 06:11:52;;;;;;;6.65;3.17;;;;;;;0.40;88.67;101382.75;5051965;28;20086;-71
2023/04/05 06:14:18;;;;;;;10.73;4.20;;;;;;;0.47;88.52;101378.72;5033459;28;20028;-71
2023/04/05 06:16:43;;;;;;;8.65;3.22;;;;;;;0.49;89.31;101376.22;5050558;28;20068;-70
2023/04/05 06:19:09;;;;;;;9.50;2.72;;;;;;;0.63;88.57;101375.19;5048093;28;20053;-71
2023/04/05 06:21:34;;;;;;;6.68;2.47;;;;;;;0.76;87.72;101367.16;5051029;28;20056;-71
2023/04/05 06:24:00;;;;;;;7.32;3.30;;;;;;;0.83;86.84;101363.13;5051350;28;20049;-71
2023/04/05 06:26:28;;;;;;;7.75;3.78;;;;;;;0.87;86.87;101371.13;5051349;28;20033;-71
2023/04/05 06:28:55;;;;;;;9.48;4.93;;;;;;;0.96;87.03;101369.78;5051890;28;20035;-71
2023/04/05 06:31:26;;;;;;;8.05;4.47;;;;;;;1.00;87.13;101362.19;5042096;28;20043;-71
2023/04/05 06:33:51;;;;;;;7.40;3.13;;;;;;;1.12;86.27;101364.44;5051339;28;20037;-70
2023/04/05 06:36:16;;;;;;;9.65;4.45;;;;;;;1.21;85.71;101354.47;5051376;28;20043;-71
2023/04/05 06:38:42;;;;;;;16.88;5.75;;;;;;;1.31;84.47;101356.66;5051105;28;20036;-71
2023/04/05 06:41:07;;;;;;;16.45;4.82;;;;;;;1.46;84.69;101352.94;5050222;28;20036;-70
2023/04/05 06:43:32;;;;;;;10.93;3.50;;;;;;;1.60;83.35;101350.94;5051063;28;20113;-71
2023/04/05 06:45:59;;;;;;;9.90;3.85;;;;;;;1.68;82.90;101355.69;5048913;28;20131;-71
2023/04/05 06:48:27;;;;;;;6.68;3.10;;;;;;;1.83;81.90;101349.31;5047627;28;20171;-71
2023/04/05 06:50:59;;;;;;;7.55;3.10;;;;;;;1.98;81.43;101352.59;5050652;28;20399;-72
2023/04/05 06:53:26;;;;;;;9.65;3.65;;;;;;;2.06;78.66;101356.38;5046866;28;20041;-71
2023/04/05 06:55:56;;;;;;;10.10;4.25;;;;;;;2.13;78.28;101355.81;5050100;28;20090;-71
2023/04/05 06:58:22;;;;;;;8.68;3.83;;;;;;;2.26;76.73;101353.72;5050571;28;20048;-72
2023/04/05 07:00:48;;;;;;;7.50;3.67;;;;;;;2.38;76.72;101359.41;5049663;28;20040;-71
2023/04/05 07:03:13;;;;;;;7.18;2.85;;;;;;;2.46;76.25;101350.19;5050099;28;20045;-72
2023/04/05 07:05:39;;;;;;;10.52;5.47;;;;;;;2.49;75.97;101355.53;5050935;28;20174;-72
2023/04/05 07:08:04;;;;;;;10.82;3.80;;;;;;;2.57;74.29;101354.13;5050955;28;20396;-71
2023/04/05 07:10:29;;;;;;;7.72;3.40;;;;;;;2.75;74.45;101350.44;5050384;28;20446;-72
2023/04/05 07:12:55;;;;;;;5.97;2.88;;;;;;;2.84;74.37;101348.19;5050716;28;20073;-72
2023/04/05 07:15:20;;;;;;;8.73;3.47;;;;;;;2.95;73.92;101352.09;5050472;28;20044;-71
2023/04/05 07:17:45;;;;;;;9.13;3.70;;;;;;;3.05;72.27;101342.91;5032985;28;20043;-72
2023/04/05 07:20:11;;;;;;;6.53;3.55;;;;;;;3.14;71.70;101344.97;5050414;28;20120;-71
2023/04/05 07:22:36;;;;;;;5.47;2.83;;;;;;;3.27;70.85;101344.56;5047097;28;20028;-71
2023/04/05 07:25:02;;;;;;;6.53;2.50;;;;;;;3.39;70.68;101345.03;5048090;28;20126;-72
2023/04/05 07:27:29;;;;;;;5.28;2.53;;;;;;;3.50;69.29;101342.78;5050358;28;20116;-72
2023/04/05 07:29:55;;;;;;;8.38;2.20;;;;;;;3.60;68.10;101349.25;5048312;28;20040;-72
2023/04/05 07:32:20;;;;;;;7.00;2.50;;;;;;;3.65;66.86;101343.34;5047626;28;20557;-72
2023/04/05 07:34:46;;;;;;;6.93;2.78;;;;;;;3.74;66.37;101337.53;5049033;28;20100;-71
2023/04/05 07:37:12;;;;;;;10.23;2.60;;;;;;;3.84;65.96;101339.63;5047673;28;20025;-72
2023/04/05 07:39:38;;;;;;;7.55;2.75;;;;;;;3.91;65.82;101336.41;5053293;28;20499;-72
2023/04/05 07:42:06;;;;;;;5.82;2.90;;;;;;;3.98;64.90;101341.81;5052284;28;20120;-74
2023/04/05 07:44:31;;;;;;;6.50;2.75;;;;;;;4.11;64.77;101341.38;5053981;28;20045;-74
2023/04/05 07:46:57;;;;;;;7.30;3.00;;;;;;;4.20;63.82;101339.09;5044515;28;20033;-74
2023/04/05 07:49:26;;;;;;;6.32;2.70;;;;;;;4.22;64.36;101341.75;5055013;28;20686;-74
2023/04/05 07:51:58;;;;;;;8.32;3.13;;;;;;;4.33;64.03;101330.81;5052019;28;20394;-74
2023/04/05 07:54:23;;;;;;;5.93;2.50;;;;;;;4.46;63.65;101337.31;5048084;28;21029;-74
2023/04/05 07:56:49;;;;;;;8.43;3.60;;;;;;;4.54;63.58;101345.41;5050188;28;20108;-74
2023/04/05 07:59:15;;;;;;;9.20;3.72;;;;;;;4.62;62.97;101336.06;5049907;28;20124;-74
2023/04/05 08:01:41;;;;;;;5.68;2.40;;;;;;;4.71;62.19;101338.94;5050254;28;20060;-74
2023/04/05 08:04:06;;;;;;;6.35;2.60;;;;;;;4.82;62.29;101337.56;5050406;28;20044;-74
2023/04/05 08:06:31;;;;;;;7.90;2.92;;;;;;;4.82;61.65;101334.97;5032376;28;20037;-74
2023/04/05 08:08:57;;;;;;;8.20;3.00;;;;;;;4.95;60.83;101327.44;5053784;28;20037;-73
2023/04/05 08:11:22;;;;;;;9.23;3.40;;;;;;;5.05;59.12;101327.75;5054016;28;20048;-74
2023/04/05 08:13:47;;;;;;;5.00;2.20;;;;;;;5.05;59.25;101330.38;5053548;28;20033;-74
2023/04/05 08:16:13;;;;;;;8.07;2.80;;;;;;;5.16;59.05;101335.03;5053688;28;20033;-73
2023/04/05 08:18:38;;;;;;;8.00;2.88;;;;;;;5.25;59.70;101330.97;5053841;28;20043;-74
2023/04/05 08:21:03;;;;;;;9.57;2.75;;;;;;;5.39;59.33;101320.88;5053582;28;20032;-74
2023/04/05 08:23:30;;;;;;;7.03;2.75;;;;;;;5.52;58.04;101327.31;5049650;28;20067;-74
2023/04/05 08:25:56;;;;;;;6.45;3.28;;;;;;;5.68;57.85;101323.38;5036623;28;20035;-74
2023/04/05 08:28:21;;;;;;;5.03;2.55;;;;;;;5.81;57.62;101321.97;5053372;28;20029;-75
2023/04/05 08:30:47;;;;;;;6.57;2.92;;;;;;;5.88;56.43;101319.56;5053439;28;20515;-74
2023/04/05 08:33:12;;;;;;;7.82;3.08;;;;;;;5.97;55.97;101321.53;5044821;28;20036;-74
2023/04/05 08:35:38;;;;;;;9.48;4.10;;;;;;;6.04;55.70;101307.75;5053291;28;20036;-75
2023/04/05 08:38:07;;;;;;;8.90;4.10;;;;;;;6.11;54.32;101314.94;5053415;28;20384;-75
2023/04/05 08:40:40;;;;;;;5.63;2.63;;;;;;;6.23;54.04;101309.09;5053032;28;20578;-75
2023/04/05 08:43:36;;;;;;;4.97;2.47;;;;;;;6.21;49.87;101308.19;5053316;28;20064;-74
2023/04/05 08:46:02;;;;;;;7.28;2.45;;;;;;;6.08;50.51;101307.00;5048844;28;20053;-75
2023/04/05 08:48:31;;;;;;;7.60;2.22;;;;;;;6.07;49.39;101301.72;5039108;28;20047;-75
2023/04/05 08:50:56;;;;;;;4.35;2.30;;;;;;;6.17;50.77;101318.56;5053022;28;20078;-75
2023/04/05 08:53:22;;;;;;;6.45;2.40;;;;;;;6.29;49.69;101308.38;5052930;28;20032;-74
2023/04/05 08:55:54;;;;;;;5.57;2.03;;;;;;;6.29;48.35;101306.63;5053068;28;20040;-74
2023/04/05 08:58:21;;;;;;;5.30;1.98;;;;;;;6.39;49.23;101305.09;5049551;28;20119;-74
2023/04/05 09:00:47;;;;;;;5.00;1.73;;;;;;;6.44;49.22;101302.56;5052726;28;20104;-74
2023/04/05 09:03:20;;;;;;;5.13;2.10;;;;;;;6.67;48.67;101303.97;5034966;28;20132;-75
2023/04/05 09:05:48;;;;;;;6.43;2.85;;;;;;;6.89;48.33;101296.56;5052754;28;20047;-74
2023/04/05 09:08:14;;;;;;;3.78;1.40;;;;;;;7.00;45.20;101301.19;5052687;28;20077;-74
2023/04/05 09:10:40;;;;;;;6.35;1.85;;;;;;;6.91;45.38;101298.38;5051334;28;20071;-74
2023/04/05 09:13:05;;;;;;;3.55;1.48;;;;;;;7.10;46.56;101291.78;5052729;28;20041;-74
2023/04/05 09:15:31;;;;;;;4.70;1.63;;;;;;;7.43;46.05;101302.03;5051846;28;20090;-75
2023/04/05 09:17:56;;;;;;;5.50;2.20;;;;;;;7.58;44.76;101295.31;5050060;28;20025;-75
2023/04/05 09:20:22;;;;;;;4.97;2.38;;;;;;;7.74;43.83;101291.22;5049992;28;20506;-74
2023/04/05 09:22:48;;;;;;;6.20;1.90;;;;;;;7.86;44.30;101292.31;5049801;28;20044;-74
2023/04/05 09:25:33;;;;;;;5.28;1.73;;;;;;;8.13;42.76;101291.88;5052752;28;20032;-74
2023/04/05 09:27:59;;;;;;;5.07;1.77;;;;;;;8.24;43.65;101289.41;5050899;28;20487;-75
2023/04/05 09:30:26;;;;;;;4.68;1.80;;;;;;;8.49;42.87;101295.09;5052275;28;20148;-74
2023/04/05 09:32:53;;;;;;;5.15;2.10;;;;;;;8.65;42.99;101291.81;5052334;28;20029;-74
2023/04/05 09:35:24;;;;;;;6.43;2.33;;;;;;;8.62;41.82;101307.56;5051517;28;20028;-75
2023/04/05 09:37:53;;;;;;;5.50;2.00;;;;;;;8.58;40.32;101300.47;5055600;28;20492;-74
2023/04/05 09:40:22;;;;;;;5.45;1.88;;;;;;;8.61;41.02;101300.53;5034537;28;20041;-75
2023/04/05 09:42:48;;;;;;;4.90;2.13;;;;;;;8.75;40.45;101285.81;5052049;28;20380;-75
2023/04/05 09:45:15;;;;;;;4.00;1.60;;;;;;;9.07;41.79;101289.72;5052667;28;20051;-75
2023/04/05 09:47:55;;;;;;;4.90;2.20;;;;;;;9.30;40.21;101293.50;5051715;28;20052;-75
2023/04/05 09:50:20;;;;;;;3.63;1.50;;;;;;;9.27;39.72;101275.00;5049956;28;20056;-75
2023/04/05 09:52:46;;;;;;;5.78;1.75;;;;;;;9.22;38.94;101274.09;5051198;28;20021;-75
2023/04/05 09:55:12;;;;;;;4.00;1.70;;;;;;;9.46;40.00;101276.13;5051573;28;20039;-75
2023/04/05 09:57:39;;;;;;;6.30;1.95;;;;;;;9.78;38.66;101271.16;5050190;28;20041;-75
2023/04/05 10:00:16;;;;;;;4.63;1.60;;;;;;;9.82;37.99;101264.13;5049092;28;20044;-75
2023/04/05 10:02:41;;;;;;;3.85;1.55;;;;;;;9.76;38.57;101264.97;5040725;28;20094;-76
2023/04/05 10:05:12;;;;;;;7.60;1.52;;;;;;;10.07;39.78;101258.19;5049970;28;20040;-74
2023/04/05 10:07:42;;;;;;;3.25;1.83;;;;;;;10.60;38.05;101256.81;5051738;28;20509;-74
2023/04/05 10:10:09;;;;;;;3.08;1.10;;;;;;;10.62;38.02;101256.81;5049824;28;20167;-74
2023/04/05 10:12:38;;;;;;;4.20;1.80;;;;;;;10.54;36.75;101254.16;5051261;28;20033;-75
2023/04/05 10:15:04;;;;;;;3.15;1.35;;;;;;;10.69;36.65;101256.00;5047481;28;20043;-75
2023/04/05 10:17:51;;;;;;;3.78;1.27;;;;;;;10.86;35.76;101258.69;5050524;28;20068;-75
2023/04/05 10:20:21;;;;;;;3.53;1.25;;;;;;;10.92;36.57;101256.94;5050914;28;20036;-75
2023/04/05 10:23:19;;;;;;;2.40;1.13;;;;;;;10.49;36.71;101256.75;5095784;22;20053;-79
2023/04/05 10:25:50;;;;;;;3.03;1.25;;;;;;;10.03;35.37;101259.06;5087990;28;20055;-78
2023/04/05 10:28:36;;;;;;;4.27;1.10;;;;;;;9.73;35.55;101266.72;5105960;28;20103;-78
2023/04/05 10:31:27;;;;;;;3.35;1.40;;;;;;;9.13;36.23;101264.34;5101971;28;20035;-78
2023/04/05 10:34:09;;;;;;;3.42;0.90;;;;;;;8.75;37.35;101262.13;5072384;28;20043;-78
2023/04/05 10:37:00;;;;;;;2.88;1.00;;;;;;;8.48;37.33;101254.72;5070073;28;20052;-78
2023/04/05 10:39:54;;;;;;;2.72;1.10;;;;;;;8.62;37.44;101254.94;5059668;28;20045;-78
2023/04/05 10:42:25;;;;;;;4.30;1.13;;;;;;;8.85;37.88;101255.22;5064285;28;20052;-78
2023/04/05 10:44:54;;;;;;;3.80;1.52;;;;;;;8.94;37.53;101251.84;5069026;28;20040;-79
2023/04/05 10:47:22;;;;;;;3.28;1.05;;;;;;;9.31;36.96;101257.50;5072354;28;20414;-79
2023/04/05 10:49:50;;;;;;;2.13;0.90;;;;;;;9.02;36.65;101247.53;5073782;28;20044;-79
2023/04/05 10:52:17;;;;;;;2.83;0.90;;;;;;;8.98;36.90;101251.00;5074429;28;20204;-78
2023/04/05 10:54:43;;;;;;;4.88;1.17;;;;;;;8.94;36.47;101246.56;5075896;28;20631;-78
2023/04/05 10:57:09;;;;;;;4.40;1.20;;;;;;;8.88;37.32;101249.09;5069184;28;20568;-78
2023/04/05 10:59:38;;;;;;;3.45;1.10;;;;;;;9.15;36.63;101249.44;5070704;28;20037;-78
2023/04/05 11:02:05;;;;;;;2.20;1.10;;;;;;;9.36;36.46;101248.78;5067271;28;20060;-78
2023/04/05 11:04:32;;;;;;;2.30;0.80;;;;;;;9.47;36.46;101248.88;5077799;28;20032;-78
2023/04/05 11:07:11;;;;;;;2.83;1.13;;;;;;;9.70;35.76;101245.59;5063240;28;20033;-78
2023/04/05 11:09:39;;;;;;;3.35;0.90;;;;;;;9.97;35.70;101245.81;5067840;28;20040;-78
2023/04/05 11:12:04;;;;;;;2.63;0.82;;;;;;;10.20;35.44;101231.91;5058140;28;20037;-78
2023/04/05 11:14:37;;;;;;;2.47;1.15;;;;;;;10.66;35.29;101237.47;5070400;28;20041;-78
2023/04/05 11:17:22;;;;;;;4.75;1.15;;;;;;;10.53;33.25;101237.44;5076901;28;20033;-78
2023/04/05 11:19:50;;;;;;;4.97;1.08;;;;;;;10.66;34.36;101232.19;5052093;28;20048;-78
2023/04/05 11:22:28;;;;;;;1.80;0.80;;;;;;;11.14;33.85;101228.88;5054237;28;20120;-78
2023/04/05 11:25:00;;;;;;;1.35;0.60;;;;;;;11.62;32.62;101215.72;5073287;28;20041;-78
2023/04/05 11:27:33;;;;;;;2.33;0.90;;;;;;;11.48;32.89;101226.28;5078664;28;20021;-78
2023/04/05 11:30:00;;;;;;;2.55;0.85;;;;;;;10.56;32.48;101223.38;5053983;28;20418;-78
2023/04/05 11:32:43;;;;;;;2.53;0.80;;;;;;;10.28;33.24;101220.56;5076898;28;20088;-78
2023/04/05 11:35:14;;;;;;;2.63;0.93;;;;;;;10.42;33.56;101222.41;5080666;28;20044;-78
2023/04/05 11:37:55;;;;;;;3.97;0.88;;;;;;;10.67;33.67;101216.38;5070310;28;20073;-78
2023/04/05 11:40:29;;;;;;;1.17;0.52;;;;;;;10.79;33.98;101231.38;5053151;28;20055;-78